Ridgefield, Washington
Current Conditions -  °F | °C
As of 8:18 AM on Friday 19 Dec 2014 (Local Time) from KSPB Reporting Station
Broken Clouds Broken Clouds  
Wind Chill: 44°   Ceiling: 10000
Heat Index: 46°   Visibility: 10mi
Dew Point: 43°   Wind: 5mph
Humidity: 89%   Direction: 200°SSW
Pressure: 29.95"   Gusts: NA
Location:  45.82°N, 122.74°W
Report Text: KSPB 191618Z AUTO 20004KT 10SM SCT020 BKN100 BKN120 08/06 A2995 RMK AO2 T00780061
Loading
Personal Weather Stations






























Interactive Weather Map New forecast layout! Learn more

10-Day Weather Forecast

Advertisements
Track Severe Weather on mobile